Aeroporto :
LOGIN :

Iscrizione | Disclaimer

   EN    FR    IT 

 










Sommario :    VFR   VFR Marginale   IFR   IFR Intensivo   IFR Molto Intensivo
Visibilità : 
Base nubi : 
>= 8 km
>= 3000ft
5 / 8 km
1000 / 3000 ft
1500m / 5 km
500 / 1000 ft
800 / 1500m
200 / 500 ft
< 800m
< 200 ft
Simboli :   Temporali  Nebbia  Neve Forte  Precipitazioni Forti  Vento > 20 kt
SIGMETs :   Varie  Temporali  Ghiacco  Turbolenza  Onda orograficha  Ceneri Vulcaniche






- Altitudine del aeroporto : 41 ft


LIRE - Pratica di Mare Air Base Pomezia

ULTIMO METAR :
  • 211555Z 11010KT 9999 -RA SCT016 SCT030 13/11 Q1012 RMK OVC VIS MIN 9999 WIND THR13 13010KT WIND THR31 11010KT BLU

METARs OBSOLETI :
  • 211455Z 10010KT 9999 -RA FEW020 SCT040 13/11 Q1012 RMK OVC VIS MIN 9999 WIND THR13 11011KT WIND THR31 10013KT BLU
  • 211355Z 10010KT 9999 -RA FEW020 SCT050 13/12 Q1012 RMK OVC VIS MIN 9999 WIND THR13 12009KT WIND THR31 10009KT BLU

TAF TAF LIRE
Valido dal 21 a 15 ore il 22 a 00 ore UTC


211400Z 2115/2124 12010KT 9999 RA SCT020 SCT040
TEMPO 2115/2118 5000 TSRA FEW020CB BKN030



MetMap, La meteo Aeronautica in un colpo d'occhio ! - Copyright ORBIFLY Dicembre 2007 - Disclaimer

ORBIFLY MET'MAP TEAM :

Programmazione e sviluppo : Alexandra Zaïnal
Concezione e sviluppo : Baudouin d'Aumeries
Co-Programmazione e sviluppo : Marc-Olivier Méhu
Supporto tecnico e logistico : Manuel Goepfert
Aiuto per la traduzione : Arnaldo La Scala

Contatto : metmap@orbifly.com




FONTI E CREDITI :

   NOAA